Time;durP1;ratioP1;P1;durP2;ratioP2;P2;SDS_P1;SDS_P2;PMS_P1;PMS_P2;Temp;Humidity;BMP_temperature;BMP_pressure;BME280_temperature;BME280_humidity;BME280_pressure;Samples;Min_cycle;Max_cycle;Signal;HPM_P1;HPM_P2
2023/10/10 00:00:27;;;;;;;9.87;6.90;;;;;;;12.59;100.00;97385.75;5012871;28;20232;-55
2023/10/10 00:02:56;;;;;;;10.23;6.50;;;;;;;12.59;100.00;97383.94;5018122;28;20212;-57
2023/10/10 00:05:33;;;;;;;8.20;6.80;;;;;;;12.62;100.00;97388.03;4971011;28;20284;-57
2023/10/10 00:08:05;;;;;;;9.90;6.67;;;;;;;12.62;100.00;97385.38;5017482;28;20196;-55
2023/10/10 00:10:34;;;;;;;7.17;6.47;;;;;;;12.59;100.00;97380.44;5019832;28;20505;-53
2023/10/10 00:13:03;;;;;;;7.70;6.20;;;;;;;12.61;100.00;97378.41;5020575;28;20676;-59
2023/10/10 00:15:37;;;;;;;7.73;6.37;;;;;;;12.58;100.00;97376.97;4931283;28;20204;-58
2023/10/10 00:18:10;;;;;;;10.97;6.90;;;;;;;12.60;100.00;97379.41;5014351;28;20848;-56
2023/10/10 00:20:43;;;;;;;7.90;7.10;;;;;;;12.57;100.00;97377.16;4961220;28;20223;-58
2023/10/10 00:23:16;;;;;;;8.53;6.23;;;;;;;12.45;100.00;97364.38;5018793;28;20270;-56
2023/10/10 00:25:45;;;;;;;9.87;6.33;;;;;;;12.48;100.00;97373.00;4971198;28;20938;-60
2023/10/10 00:28:20;;;;;;;7.20;6.20;;;;;;;12.43;100.00;97370.91;5019876;28;20228;-58
2023/10/10 00:30:49;;;;;;;7.57;5.70;;;;;;;12.39;100.00;97372.28;5016019;28;20227;-59
2023/10/10 00:33:17;;;;;;;10.20;6.87;;;;;;;12.32;100.00;97374.91;5014780;28;20219;-58
2023/10/10 00:35:47;;;;;;;7.10;5.63;;;;;;;12.28;100.00;97370.97;4969632;28;20836;-59
2023/10/10 00:38:24;;;;;;;9.80;5.83;;;;;;;12.21;100.00;97360.28;5017462;28;20215;-59
2023/10/10 00:40:54;;;;;;;8.53;6.53;;;;;;;12.27;100.00;97378.13;4979003;28;20254;-57
2023/10/10 00:43:24;;;;;;;8.23;6.00;;;;;;;12.28;100.00;97374.47;5017208;28;20842;-61
2023/10/10 00:45:53;;;;;;;7.63;6.43;;;;;;;12.31;100.00;97373.25;5015694;28;20200;-61
2023/10/10 00:48:23;;;;;;;8.73;6.87;;;;;;;12.30;100.00;97361.81;4999989;28;20692;-57
2023/10/10 00:50:53;;;;;;;7.33;5.97;;;;;;;12.33;100.00;97371.25;4957632;28;20215;-60
2023/10/10 00:53:23;;;;;;;7.93;6.50;;;;;;;12.32;100.00;97374.06;5008339;28;20208;-60
2023/10/10 00:55:56;;;;;;;9.77;5.67;;;;;;;12.29;100.00;97372.59;4978783;28;20208;-58
2023/10/10 00:58:32;;;;;;;9.47;6.03;;;;;;;12.27;100.00;97379.94;5017421;28;20731;-59
2023/10/10 01:01:04;;;;;;;9.13;7.10;;;;;;;12.25;100.00;97374.00;5013107;28;20226;-59
2023/10/10 01:03:34;;;;;;;7.60;6.13;;;;;;;12.25;100.00;97366.03;4996841;28;20204;-59
2023/10/10 01:06:06;;;;;;;7.70;6.03;;;;;;;12.22;100.00;97369.91;4991716;28;20664;-59
2023/10/10 01:08:50;;;;;;;6.77;5.90;;;;;;;12.21;100.00;97375.41;5015286;28;20303;-60
2023/10/10 01:11:19;;;;;;;8.77;6.40;;;;;;;12.14;100.00;97367.38;5014546;28;20594;-60
2023/10/10 01:13:47;;;;;;;7.80;5.70;;;;;;;12.08;100.00;97374.25;4978266;28;20692;-60
2023/10/10 01:16:17;;;;;;;8.80;6.30;;;;;;;12.02;100.00;97369.72;5011966;28;20225;-57
2023/10/10 01:18:51;;;;;;;7.03;6.23;;;;;;;11.90;100.00;97360.53;4963692;28;21355;-59
2023/10/10 01:21:30;;;;;;;10.00;5.90;;;;;;;11.85;100.00;97371.75;5006546;28;20219;-57
2023/10/10 01:24:11;;;;;;;8.97;6.80;;;;;;;11.76;100.00;97371.03;4960499;28;20848;-58
2023/10/10 01:26:44;;;;;;;7.57;6.30;;;;;;;11.65;100.00;97371.53;5025883;28;20867;-56
2023/10/10 01:29:21;;;;;;;8.13;6.47;;;;;;;11.61;100.00;97370.25;5013587;28;20228;-59
2023/10/10 01:31:51;;;;;;;8.50;6.17;;;;;;;11.54;100.00;97368.31;5020628;28;20215;-57
2023/10/10 01:37:07;;;;;;;8.30;6.50;;;;;;;11.44;100.00;97373.09;5012963;28;20687;-60
2023/10/10 01:39:47;;;;;;;9.53;6.10;;;;;;;11.42;100.00;97362.69;5016132;28;20230;-57
2023/10/10 01:42:18;;;;;;;7.90;6.47;;;;;;;11.41;100.00;97368.16;5017450;28;20281;-61
2023/10/10 01:44:47;;;;;;;9.43;5.77;;;;;;;11.43;100.00;97369.63;5001623;28;20668;-59
2023/10/10 01:47:25;;;;;;;6.73;6.13;;;;;;;11.41;100.00;97368.16;4987402;28;20955;-58
2023/10/10 01:49:54;;;;;;;7.17;5.70;;;;;;;11.36;100.00;97365.25;4974100;28;20239;-60
2023/10/10 01:52:25;;;;;;;8.97;6.00;;;;;;;11.40;100.00;97371.81;4973844;28;20310;-57
2023/10/10 01:54:53;;;;;;;7.80;5.90;;;;;;;11.32;100.00;97354.16;4990766;28;20204;-60
2023/10/10 01:57:26;;;;;;;6.23;5.63;;;;;;;11.35;100.00;97371.56;4991299;28;20220;-57
2023/10/10 01:59:58;;;;;;;7.97;6.80;;;;;;;11.32;100.00;97367.44;5018193;28;20236;-60
2023/10/10 02:02:26;;;;;;;9.20;6.47;;;;;;;11.28;100.00;97359.03;5015962;28;20232;-58
2023/10/10 02:04:56;;;;;;;7.63;5.90;;;;;;;11.25;100.00;97374.47;4959289;28;20590;-56
2023/10/10 02:07:31;;;;;;;8.77;5.87;;;;;;;11.24;100.00;97371.03;5021802;28;20295;-53
2023/10/10 02:10:13;;;;;;;7.77;6.20;;;;;;;11.24;100.00;97378.97;4968916;28;20868;-57
2023/10/10 02:12:44;;;;;;;8.70;6.87;;;;;;;11.19;100.00;97375.22;5022261;28;20259;-61
2023/10/10 02:15:15;;;;;;;8.43;6.43;;;;;;;11.14;100.00;97375.75;5020180;28;20203;-54
2023/10/10 02:17:50;;;;;;;8.10;6.40;;;;;;;11.12;100.00;97378.59;4970780;28;20285;-58
2023/10/10 02:20:33;;;;;;;8.00;6.00;;;;;;;11.09;100.00;97370.19;5017821;28;20228;-59
2023/10/10 02:23:22;;;;;;;9.40;7.10;;;;;;;11.08;100.00;97379.13;4931692;28;20224;-58
2023/10/10 02:25:53;;;;;;;13.37;7.43;;;;;;;11.10;100.00;97379.78;5014252;28;20216;-58
2023/10/10 02:28:20;;;;;;;8.27;6.57;;;;;;;11.10;100.00;97372.66;4961571;28;20258;-59
2023/10/10 02:30:52;;;;;;;8.37;6.20;;;;;;;11.10;100.00;97374.47;5020160;28;20676;-57
2023/10/10 02:33:30;;;;;;;8.73;6.60;;;;;;;11.09;100.00;97372.84;5011712;28;20201;-56
2023/10/10 02:35:59;;;;;;;9.67;6.40;;;;;;;11.12;100.00;97381.25;5015970;28;20207;-56
2023/10/10 02:38:33;;;;;;;7.70;6.30;;;;;;;11.11;100.00;97376.13;5017234;28;20704;-57
2023/10/10 02:41:22;;;;;;;9.00;6.53;;;;;;;11.10;100.00;97380.63;4961266;28;20579;-56
2023/10/10 02:44:04;;;;;;;7.17;5.80;;;;;;;11.07;100.00;97377.50;5013228;28;20196;-59
2023/10/10 02:46:38;;;;;;;7.57;6.00;;;;;;;11.06;100.00;97387.28;5011124;28;20696;-59
2023/10/10 02:49:12;;;;;;;6.90;6.23;;;;;;;11.02;100.00;97390.47;5015979;28;20219;-58
2023/10/10 02:51:43;;;;;;;6.50;5.63;;;;;;;10.98;100.00;97393.50;4967346;28;20203;-58
2023/10/10 02:54:22;;;;;;;9.47;7.03;;;;;;;10.99;100.00;97391.69;4930399;28;20228;-58
2023/10/10 02:56:51;;;;;;;7.80;5.70;;;;;;;10.97;100.00;97388.34;5020746;28;20195;-56
2023/10/10 02:59:22;;;;;;;8.50;6.03;;;;;;;10.94;100.00;97391.38;4979702;28;20295;-57
2023/10/10 03:02:04;;;;;;;9.10;7.17;;;;;;;10.93;100.00;97387.91;5015965;28;20216;-58
2023/10/10 03:07:19;;;;;;;9.40;6.53;;;;;;;10.91;100.00;97389.09;4975307;28;20215;-57
2023/10/10 03:12:37;;;;;;;7.50;6.03;;;;;;;10.94;100.00;97384.25;4989014;28;20210;-58
2023/10/10 03:15:14;;;;;;;8.03;6.30;;;;;;;10.92;100.00;97382.78;4922666;28;21055;-57
2023/10/10 03:17:48;;;;;;;12.77;6.97;;;;;;;10.93;100.00;97385.28;4954221;28;20235;-56
2023/10/10 03:20:38;;;;;;;10.20;6.83;;;;;;;10.96;100.00;97392.00;5011533;28;20651;-60
2023/10/10 03:23:19;;;;;;;8.30;6.43;;;;;;;10.94;100.00;97394.88;4967080;28;20306;-60
2023/10/10 03:25:51;;;;;;;8.73;6.57;;;;;;;10.92;100.00;97391.56;5024401;28;20207;-59
2023/10/10 03:28:19;;;;;;;8.93;6.10;;;;;;;10.92;100.00;97393.38;4930364;28;20690;-58
2023/10/10 03:30:51;;;;;;;8.47;6.43;;;;;;;10.90;100.00;97395.41;5020541;28;20597;-60
2023/10/10 03:33:35;;;;;;;9.10;6.37;;;;;;;10.85;100.00;97401.25;4967229;28;20953;-57
2023/10/10 03:36:22;;;;;;;9.17;7.00;;;;;;;10.82;100.00;97402.44;5023587;28;20274;-59
2023/10/10 05:24:09;;;;;;;20.80;18.43;;;;;;;9.79;100.00;97402.66;5010854;28;20256;-59
2023/10/10 05:26:46;;;;;;;9.13;7.47;;;;;;;9.89;100.00;97415.66;5017819;28;20209;-55
2023/10/10 05:29:19;;;;;;;9.17;7.10;;;;;;;9.92;100.00;97417.97;5010222;28;20314;-59
2023/10/10 05:31:47;;;;;;;9.37;7.00;;;;;;;9.93;100.00;97418.78;5012958;28;20216;-58
2023/10/10 05:34:15;;;;;;;10.70;7.47;;;;;;;9.89;100.00;97420.97;5016522;28;20302;-58
2023/10/10 05:36:45;;;;;;;12.73;7.27;;;;;;;9.90;100.00;97427.91;5017848;28;20607;-54
2023/10/10 05:39:17;;;;;;;8.90;7.60;;;;;;;9.90;100.00;97430.56;4929820;28;20237;-56
2023/10/10 05:41:47;;;;;;;7.33;6.60;;;;;;;9.92;100.00;97428.56;5014596;28;20200;-55
2023/10/10 05:44:16;;;;;;;7.67;6.80;;;;;;;9.91;100.00;97437.50;5016058;28;20232;-56
2023/10/10 05:46:44;;;;;;;9.27;6.33;;;;;;;9.92;100.00;97433.00;5015546;28;20196;-57
2023/10/10 05:49:12;;;;;;;7.93;7.10;;;;;;;9.94;100.00;97436.31;4966358;28;20232;-59
2023/10/10 05:51:40;;;;;;;10.53;7.07;;;;;;;9.94;100.00;97439.78;5018525;28;20207;-54
2023/10/10 05:54:10;;;;;;;8.67;7.63;;;;;;;9.92;100.00;97436.50;5011291;28;20296;-57
2023/10/10 05:56:38;;;;;;;9.20;7.10;;;;;;;9.90;100.00;97443.78;5015822;28;20612;-58
2023/10/10 05:59:08;;;;;;;7.40;6.67;;;;;;;9.97;100.00;97443.91;5015250;28;20224;-57
2023/10/10 06:01:37;;;;;;;7.30;6.47;;;;;;;10.01;100.00;97444.38;5011110;28;20204;-55
2023/10/10 06:04:07;;;;;;;7.13;6.37;;;;;;;10.07;100.00;97443.69;5017920;28;20843;-57
2023/10/10 06:06:35;;;;;;;9.03;6.30;;;;;;;10.14;100.00;97447.28;5014429;28;20236;-57
2023/10/10 06:09:05;;;;;;;8.20;7.37;;;;;;;10.24;100.00;97453.19;5014333;28;20320;-58
2023/10/10 06:11:34;;;;;;;8.90;7.40;;;;;;;10.34;100.00;97452.13;4938379;28;20208;-60
2023/10/10 06:14:04;;;;;;;8.73;6.97;;;;;;;10.41;100.00;97448.63;5018865;28;20668;-57
2023/10/10 06:16:32;;;;;;;8.87;6.90;;;;;;;10.53;100.00;97450.88;5011861;28;20866;-57
2023/10/10 06:19:01;;;;;;;8.17;7.37;;;;;;;10.63;100.00;97455.94;5015679;28;20227;-60
2023/10/10 06:21:29;;;;;;;9.10;7.50;;;;;;;10.73;100.00;97445.91;4965584;28;20204;-60
2023/10/10 06:23:57;;;;;;;10.17;7.17;;;;;;;10.84;100.00;97453.44;5020904;28;20679;-59
2023/10/10 06:26:25;;;;;;;10.47;7.30;;;;;;;10.80;100.00;97448.69;5011575;28;20212;-59
2023/10/10 06:28:57;;;;;;;8.83;6.93;;;;;;;10.86;100.00;97453.28;5014534;28;20217;-57
2023/10/10 06:31:33;;;;;;;10.70;8.20;;;;;;;10.95;100.00;97456.66;5001536;28;20208;-58
2023/10/10 06:34:19;;;;;;;9.50;8.50;;;;;;;10.97;100.00;97457.28;5015048;28;20211;-59
2023/10/10 06:36:48;;;;;;;8.70;7.00;;;;;;;11.02;100.00;97462.91;5012806;28;20209;-60
2023/10/10 06:39:19;;;;;;;9.27;6.80;;;;;;;11.08;100.00;97461.34;5012926;28;20320;-60
2023/10/10 06:41:50;;;;;;;8.53;7.63;;;;;;;11.14;100.00;97472.06;5003294;28;20212;-58
2023/10/10 06:44:39;;;;;;;8.50;6.87;;;;;;;11.18;100.00;97456.63;5013372;28;20256;-56
2023/10/10 06:47:11;;;;;;;9.03;7.83;;;;;;;11.28;100.00;97465.13;4969454;28;20209;-60
2023/10/10 06:49:53;;;;;;;10.50;7.43;;;;;;;11.38;100.00;97462.22;5017180;28;20642;-60
2023/10/10 06:52:24;;;;;;;9.03;6.83;;;;;;;11.43;100.00;97457.19;5017684;28;20274;-59
2023/10/10 06:54:55;;;;;;;8.40;7.03;;;;;;;11.49;100.00;97460.91;4980521;28;20827;-59
2023/10/10 06:57:35;;;;;;;8.50;7.03;;;;;;;11.55;100.00;97460.22;5001963;28;20290;-59
2023/10/10 07:00:20;;;;;;;8.27;7.47;;;;;;;11.68;100.00;97464.03;5013392;28;20951;-60
2023/10/10 07:02:50;;;;;;;7.30;6.60;;;;;;;11.73;100.00;97461.66;5022310;28;20593;-60
2023/10/10 07:05:19;;;;;;;9.37;6.60;;;;;;;11.81;100.00;97460.75;5021314;28;20220;-58
2023/10/10 07:07:53;;;;;;;9.70;6.67;;;;;;;11.87;100.00;97452.03;5025442;28;20227;-60
2023/10/10 07:10:26;;;;;;;8.60;7.33;;;;;;;12.08;100.00;97451.28;5022865;28;20294;-57
2023/10/10 07:12:57;;;;;;;8.87;6.57;;;;;;;12.27;100.00;97444.53;5020856;28;20200;-58
2023/10/10 07:15:28;;;;;;;8.03;6.93;;;;;;;12.41;100.00;97442.84;4940697;28;21129;-58
2023/10/10 07:18:08;;;;;;;8.77;7.20;;;;;;;12.54;100.00;97452.78;5016055;28;20197;-58
2023/10/10 07:23:22;;;;;;;14.53;7.40;;;;;;;12.63;100.00;97444.69;5019562;28;20579;-59
2023/10/10 07:25:59;;;;;;;10.47;7.00;;;;;;;12.60;100.00;97451.19;5015813;28;20233;-58
2023/10/10 07:28:27;;;;;;;8.77;6.90;;;;;;;12.64;100.00;97460.41;5017396;28;20200;-59
2023/10/10 07:30:59;;;;;;;11.03;7.17;;;;;;;12.73;100.00;97461.97;4968337;28;20366;-59
2023/10/10 07:33:40;;;;;;;11.17;6.67;;;;;;;12.84;100.00;97465.09;5024269;28;20232;-61
2023/10/10 07:36:12;;;;;;;9.60;7.50;;;;;;;12.94;100.00;97467.44;5019003;28;20266;-62
2023/10/10 07:38:40;;;;;;;10.47;7.80;;;;;;;13.20;100.00;97472.16;5020737;28;20235;-61
2023/10/10 07:41:09;;;;;;;8.00;7.20;;;;;;;13.31;100.00;97476.13;5021337;28;20207;-61
2023/10/10 07:43:37;;;;;;;8.43;7.63;;;;;;;13.49;100.00;97470.31;5022984;28;20203;-62
2023/10/10 07:46:18;;;;;;;12.57;7.87;;;;;;;13.68;100.00;97473.28;5020589;28;20199;-61
2023/10/10 07:48:46;;;;;;;10.93;7.97;;;;;;;13.74;100.00;97473.31;5020198;28;20234;-60
2023/10/10 07:51:27;;;;;;;7.97;6.77;;;;;;;13.93;100.00;97475.47;4940363;28;20439;-61
2023/10/10 07:54:01;;;;;;;10.10;7.50;;;;;;;13.98;100.00;97468.50;5023592;28;20197;-61
2023/10/10 07:56:31;;;;;;;12.67;7.97;;;;;;;14.18;100.00;97462.44;5016726;28;20285;-60
2023/10/10 07:58:59;;;;;;;11.07;7.47;;;;;;;14.31;100.00;97464.31;5030106;28;20635;-61
2023/10/10 08:01:28;;;;;;;12.30;7.93;;;;;;;14.27;100.00;97460.41;4966313;28;20219;-60
2023/10/10 08:03:56;;;;;;;12.73;7.90;;;;;;;14.31;100.00;97459.00;5015628;28;21193;-59
2023/10/10 08:06:23;;;;;;;11.00;7.53;;;;;;;14.46;100.00;97456.16;5018965;28;20196;-60
2023/10/10 08:09:09;;;;;;;8.40;7.50;;;;;;;14.52;100.00;97459.84;5016245;28;20219;-59
2023/10/10 08:11:37;;;;;;;8.63;7.77;;;;;;;14.58;100.00;97449.19;5022340;28;20262;-58
2023/10/10 08:14:07;;;;;;;9.73;7.53;;;;;;;14.54;100.00;97450.63;5021000;28;20209;-60
2023/10/10 08:16:38;;;;;;;11.47;8.90;;;;;;;14.80;100.00;97459.72;5021835;28;20227;-61
2023/10/10 08:19:08;;;;;;;12.60;7.37;;;;;;;15.05;100.00;97459.09;5012078;28;20319;-63
2023/10/10 08:21:38;;;;;;;9.90;7.57;;;;;;;15.30;100.00;97464.59;5018324;28;20263;-59
2023/10/10 08:24:07;;;;;;;11.50;7.70;;;;;;;15.49;100.00;97456.78;4939411;28;20293;-58
2023/10/10 08:26:42;;;;;;;14.13;7.40;;;;;;;15.66;100.00;97457.16;5020497;28;20210;-56
2023/10/10 08:29:10;;;;;;;8.97;7.80;;;;;;;15.67;100.00;97460.63;5018196;28;20223;-59
2023/10/10 08:31:42;;;;;;;11.23;6.90;;;;;;;15.55;100.00;97465.81;5018248;28;20699;-57
2023/10/10 08:37:40;;;;;;;9.37;7.30;;;;;;;16.06;100.00;97466.91;5776048;23;20232;-60
2023/10/10 08:40:30;;;;;;;13.93;8.57;;;;;;;16.17;100.00;97466.25;4879844;28;20238;-61
2023/10/10 08:42:58;;;;;;;10.80;8.40;;;;;;;16.19;100.00;97461.50;5033533;28;20959;-61
2023/10/10 08:45:26;;;;;;;9.63;8.00;;;;;;;16.27;100.00;97457.75;5027224;28;20227;-61
2023/10/10 08:48:00;;;;;;;10.73;7.93;;;;;;;16.57;100.00;97457.16;5041245;28;20215;-60
2023/10/10 08:50:32;;;;;;;12.53;8.67;;;;;;;16.72;100.00;97456.06;5003479;28;20217;-58
2023/10/10 08:53:00;;;;;;;10.10;9.00;;;;;;;16.70;100.00;97460.81;5000152;28;20806;-59
2023/10/10 08:55:28;;;;;;;13.33;8.53;;;;;;;16.88;100.00;97449.34;5052214;28;20213;-60
2023/10/10 08:57:56;;;;;;;12.97;8.90;;;;;;;16.77;100.00;97454.34;5050826;28;20272;-59
2023/10/10 09:00:27;;;;;;;11.70;8.90;;;;;;;17.04;100.00;97461.38;5053948;28;20253;-58
2023/10/10 09:02:56;;;;;;;11.80;7.93;;;;;;;16.98;100.00;97454.22;5007782;28;20298;-60
2023/10/10 09:05:28;;;;;;;9.20;8.30;;;;;;;17.22;100.00;97452.56;5053539;28;20278;-58
2023/10/10 09:08:05;;;;;;;9.67;8.60;;;;;;;17.35;100.00;97457.81;5049434;28;20305;-57
2023/10/10 09:10:39;;;;;;;14.70;8.73;;;;;;;17.53;100.00;97458.88;5055667;28;20194;-59
2023/10/10 09:13:07;;;;;;;12.70;9.13;;;;;;;17.18;100.00;97452.22;4938367;28;20245;-52
2023/10/10 09:15:35;;;;;;;9.43;7.93;;;;;;;17.41;100.00;97455.28;5049615;28;20204;-55
2023/10/10 09:18:16;;;;;;;10.63;9.53;;;;;;;17.69;100.00;97459.34;5070860;28;20245;-55
2023/10/10 09:20:45;;;;;;;13.43;9.20;;;;;;;17.95;100.00;97455.53;5057488;28;20197;-58
2023/10/10 09:23:24;;;;;;;9.97;9.07;;;;;;;17.86;100.00;97463.03;5003069;28;20215;-57
2023/10/10 09:26:04;;;;;;;10.50;8.60;;;;;;;17.99;100.00;97461.25;5058356;28;20250;-58
2023/10/10 09:28:44;;;;;;;8.73;7.80;;;;;;;17.99;100.00;97455.88;5047702;28;20282;-60
2023/10/10 09:31:20;;;;;;;7.73;7.03;;;;;;;18.00;100.00;97455.66;5052064;28;20870;-57
2023/10/10 09:33:54;;;;;;;9.03;7.67;;;;;;;17.98;100.00;97455.06;5004986;28;20229;-59
2023/10/10 09:36:26;;;;;;;11.00;8.37;;;;;;;18.22;100.00;97461.41;5053821;28;20265;-55
2023/10/10 09:39:08;;;;;;;7.93;7.23;;;;;;;18.34;100.00;97453.41;5045747;28;20230;-58
2023/10/10 09:41:47;;;;;;;8.67;6.77;;;;;;;18.40;100.00;97449.00;5055592;28;20743;-58
2023/10/10 09:44:49;;;;;;;7.90;7.10;;;;;;;18.50;100.00;97449.25;4979618;28;20237;-58
2023/10/10 09:47:36;;;;;;;7.20;6.50;;;;;;;18.99;100.00;97452.91;5048228;28;20232;-56
2023/10/10 09:52:57;;;;;;;7.80;6.73;;;;;;;18.95;100.00;97456.03;5051668;28;20203;-57
2023/10/10 09:55:42;;;;;;;11.90;7.80;;;;;;;18.95;100.00;97453.34;5053690;28;20207;-58
2023/10/10 09:58:24;;;;;;;7.07;6.40;;;;;;;18.91;100.00;97451.34;5001965;28;20246;-58
2023/10/10 10:00:53;;;;;;;9.83;6.70;;;;;;;18.95;100.00;97447.13;5053797;28;20210;-58
2023/10/10 10:03:42;;;;;;;8.07;6.23;;;;;;;19.14;100.00;97449.75;5008565;28;20206;-57
2023/10/10 10:06:34;;;;;;;8.00;6.00;;;;;;;19.07;100.00;97445.31;5054412;28;20234;-59
2023/10/10 10:09:32;;;;;;;10.87;6.40;;;;;;;19.08;100.00;97446.13;5047006;28;20700;-56
2023/10/10 10:12:08;;;;;;;9.40;6.03;;;;;;;19.17;100.00;97449.31;5052816;28;20936;-59
2023/10/10 10:14:46;;;;;;;7.27;6.27;;;;;;;19.05;100.00;97438.53;5054517;28;20666;-58
2023/10/10 10:17:23;;;;;;;8.43;6.80;;;;;;;19.33;100.00;97443.22;4988496;28;20794;-58
2023/10/10 10:19:51;;;;;;;9.43;6.10;;;;;;;19.41;100.00;97444.75;4986557;28;22951;-56
2023/10/10 10:22:21;;;;;;;6.33;5.73;;;;;;;19.57;100.00;97447.75;5053470;28;20205;-54
2023/10/10 10:25:20;;;;;;;7.37;6.57;;;;;;;19.52;100.00;97446.59;5050501;28;20802;-57
2023/10/10 10:27:49;;;;;;;9.17;5.90;;;;;;;19.60;100.00;97466.09;5051440;28;20243;-58
2023/10/10 10:30:39;;;;;;;7.00;5.97;;;;;;;19.71;100.00;97457.22;5004257;28;20296;-55
2023/10/10 10:33:09;;;;;;;7.03;5.80;;;;;;;19.59;100.00;97453.69;5050736;28;20313;-57
2023/10/10 10:36:06;;;;;;;9.67;5.67;;;;;;;19.48;100.00;97449.97;5004104;28;20312;-56
2023/10/10 10:38:39;;;;;;;8.37;5.67;;;;;;;19.85;100.00;97451.56;5049783;28;20567;-58
2023/10/10 10:41:17;;;;;;;7.93;5.43;;;;;;;20.14;100.00;97439.00;5051045;28;20205;-58
2023/10/10 10:43:49;;;;;;;12.73;6.87;;;;;;;20.39;100.00;97446.72;5055536;28;20239;-57
2023/10/10 10:46:27;;;;;;;6.40;5.67;;;;;;;20.88;100.00;97444.63;4983561;28;20372;-58
2023/10/10 10:49:05;;;;;;;6.07;5.17;;;;;;;21.21;100.00;97440.28;5055720;28;20261;-57
2023/10/10 10:51:41;;;;;;;6.03;5.00;;;;;;;21.60;100.00;97429.50;4956711;28;20207;-58
2023/10/10 10:54:35;;;;;;;10.00;5.30;;;;;;;21.55;100.00;97438.34;5051134;28;20647;-58
2023/10/10 10:57:01;;;;;;;7.70;4.80;;;;;;;21.68;96.17;97433.69;5047325;28;20219;-59
2023/10/10 10:59:38;;;;;;;5.00;4.60;;;;;;;21.77;94.05;97425.97;5048004;28;20721;-57
2023/10/10 11:02:15;;;;;;;5.73;4.80;;;;;;;21.68;91.42;97421.00;4998426;28;20657;-59
2023/10/10 11:04:49;;;;;;;6.63;4.60;;;;;;;21.82;89.97;97416.06;5044759;28;20553;-55
2023/10/10 11:07:27;;;;;;;5.87;4.67;;;;;;;21.73;93.58;97409.47;5006041;28;20225;-57
2023/10/10 11:10:06;;;;;;;4.90;4.40;;;;;;;21.85;97.43;97405.84;5055067;28;20218;-60
2023/10/10 11:12:36;;;;;;;5.57;4.90;;;;;;;21.76;98.07;97408.16;5056469;28;20227;-59
2023/10/10 11:15:10;;;;;;;6.60;5.37;;;;;;;21.90;97.59;97409.41;5054609;28;20247;-62
2023/10/10 11:17:42;;;;;;;5.47;4.97;;;;;;;22.22;94.92;97415.97;5049848;28;20268;-62
2023/10/10 11:20:55;;;;;;;5.70;4.03;;;;;;;22.34;89.13;97405.81;5056408;28;20827;-61
2023/10/10 11:23:20;;;;;;;6.73;5.77;;;;;;;22.04;91.62;97409.03;5055274;28;20199;-58
2023/10/10 11:26:00;;;;;;;4.83;4.33;;;;;;;21.94;89.63;97410.53;4951781;28;20889;-58
2023/10/10 11:28:45;;;;;;;6.20;4.60;;;;;;;21.95;92.45;97411.34;5055356;28;20732;-59
2023/10/10 11:31:14;;;;;;;8.10;4.50;;;;;;;21.92;88.14;97401.88;5049479;28;20293;-56
2023/10/10 11:33:50;;;;;;;6.23;4.97;;;;;;;22.00;83.45;97402.50;5049970;28;20199;-56
2023/10/10 11:36:29;;;;;;;7.00;4.27;;;;;;;21.91;82.43;97402.97;5004768;28;20211;-57
2023/10/10 11:39:15;;;;;;;4.90;4.40;;;;;;;21.69;85.39;97390.28;5053550;28;20195;-59
2023/10/10 11:41:46;;;;;;;6.17;4.17;;;;;;;21.58;86.80;97401.16;5049892;28;20230;-57
2023/10/10 11:44:18;;;;;;;5.33;4.47;;;;;;;21.66;93.32;97390.00;5058681;28;20203;-55
2023/10/10 11:46:48;;;;;;;4.60;4.20;;;;;;;21.88;91.76;97392.69;5006003;28;20853;-59
2023/10/10 11:49:16;;;;;;;4.13;3.83;;;;;;;21.91;88.48;97389.47;5058114;28;20219;-54
2023/10/10 11:51:45;;;;;;;4.63;4.23;;;;;;;21.82;84.79;97388.28;5059802;28;20219;-60
2023/10/10 11:54:13;;;;;;;9.87;4.50;;;;;;;21.72;83.20;97383.59;5052011;28;20739;-58
2023/10/10 11:56:41;;;;;;;5.47;4.30;;;;;;;21.71;83.66;97386.53;4982790;28;21081;-57
2023/10/10 11:59:11;;;;;;;7.17;5.30;;;;;;;21.72;82.31;97377.38;5022206;28;20349;-54
2023/10/10 12:01:51;;;;;;;5.40;4.40;;;;;;;21.77;83.02;97370.16;5057817;28;20236;-60
2023/10/10 12:04:31;;;;;;;5.17;4.63;;;;;;;22.03;82.80;97373.16;5056295;28;20200;-61
2023/10/10 12:07:00;;;;;;;4.70;4.00;;;;;;;22.10;81.89;97373.75;5010023;28;21075;-59
2023/10/10 12:09:33;;;;;;;6.47;4.30;;;;;;;22.15;82.74;97366.78;5059752;28;20414;-59
2023/10/10 12:12:03;;;;;;;6.70;4.17;;;;;;;22.26;80.19;97371.19;5051356;28;20414;-60
2023/10/10 12:14:32;;;;;;;8.00;4.97;;;;;;;22.02;78.28;97368.00;5058390;28;20207;-59
2023/10/10 12:17:05;;;;;;;6.20;3.77;;;;;;;22.20;78.97;97356.03;5050837;28;20622;-60
2023/10/10 12:19:37;;;;;;;5.53;3.93;;;;;;;22.49;79.01;97353.09;5052306;28;20659;-58
2023/10/10 12:22:10;;;;;;;5.87;4.17;;;;;;;22.66;75.00;97359.16;5052414;28;20286;-59
2023/10/10 12:24:39;;;;;;;4.80;4.33;;;;;;;22.89;76.11;97350.94;4991840;28;20230;-58
2023/10/10 12:27:09;;;;;;;4.90;4.33;;;;;;;22.91;75.98;97346.91;5056250;28;20226;-58
2023/10/10 12:29:40;;;;;;;5.10;4.07;;;;;;;23.24;74.65;97357.63;4951518;28;20744;-57
2023/10/10 12:32:15;;;;;;;8.13;3.93;;;;;;;23.23;75.72;97354.13;5057258;28;20209;-58
2023/10/10 12:34:45;;;;;;;6.70;4.10;;;;;;;23.58;72.19;97345.66;5049862;28;20203;-58
2023/10/10 12:37:15;;;;;;;12.33;4.43;;;;;;;23.94;71.28;97356.63;5055197;28;20816;-58
2023/10/10 12:39:43;;;;;;;6.37;4.07;;;;;;;24.73;65.49;97340.16;4996202;28;20846;-58
2023/10/10 12:42:11;;;;;;;5.47;3.70;;;;;;;25.49;61.50;97348.47;5052483;28;20293;-58
2023/10/10 12:44:47;;;;;;;6.13;4.33;;;;;;;26.42;57.40;97347.94;5050792;28;20221;-56
2023/10/10 12:47:17;;;;;;;6.93;4.43;;;;;;;27.44;54.35;97351.91;5054468;28;20263;-56
2023/10/10 12:49:45;;;;;;;4.13;3.40;;;;;;;27.20;50.73;97349.97;5049967;28;20210;-58
2023/10/10 12:52:16;;;;;;;7.10;4.23;;;;;;;27.68;50.98;97353.84;5056493;28;20263;-59
2023/10/10 12:54:46;;;;;;;9.87;4.67;;;;;;;28.29;48.66;97346.75;5044923;28;20212;-55
2023/10/10 12:57:14;;;;;;;9.00;4.07;;;;;;;29.29;49.09;97328.41;5056686;28;20288;-57
2023/10/10 12:59:46;;;;;;;5.40;3.80;;;;;;;29.88;47.00;97333.19;4941934;28;20310;-59
2023/10/10 13:02:16;;;;;;;6.67;3.47;;;;;;;30.45;44.12;97336.56;5054327;28;20211;-61
2023/10/10 13:04:46;;;;;;;10.17;3.93;;;;;;;30.66;44.03;97334.16;5053410;28;20199;-60
2023/10/10 13:07:16;;;;;;;9.37;4.07;;;;;;;30.51;43.14;97331.78;5053719;28;20230;-61
2023/10/10 13:09:46;;;;;;;4.77;3.67;;;;;;;30.98;43.38;97321.31;5000614;28;20294;-57
2023/10/10 13:12:27;;;;;;;7.13;3.87;;;;;;;30.81;43.92;97323.97;5054269;28;20210;-57
2023/10/10 13:15:16;;;;;;;9.37;4.27;;;;;;;30.54;44.98;97325.69;5050057;28;20219;-56
2023/10/10 13:17:53;;;;;;;6.73;3.80;;;;;;;30.52;41.34;97331.50;5051996;28;21086;-57
2023/10/10 13:20:22;;;;;;;6.20;3.93;;;;;;;30.24;41.87;97323.41;5052186;28;20270;-57
2023/10/10 13:22:51;;;;;;;5.53;3.40;;;;;;;30.07;42.29;97326.00;5054914;28;20211;-58
2023/10/10 13:25:20;;;;;;;5.40;3.60;;;;;;;30.28;42.09;97329.03;5048579;28;20722;-58
2023/10/10 13:27:49;;;;;;;4.83;3.60;;;;;;;30.32;41.89;97330.06;5054035;28;20310;-60
2023/10/10 13:30:18;;;;;;;6.80;3.50;;;;;;;30.56;41.51;97324.28;5054358;28;20290;-60
2023/10/10 13:32:46;;;;;;;7.30;3.73;;;;;;;30.70;41.20;97335.19;5056675;28;20211;-59
2023/10/10 13:35:14;;;;;;;7.37;3.90;;;;;;;30.63;42.10;97329.31;4948977;28;20864;-57
2023/10/10 13:37:43;;;;;;;7.30;3.80;;;;;;;30.84;40.54;97332.34;5054457;28;20650;-59
2023/10/10 13:40:20;;;;;;;7.40;4.80;;;;;;;30.76;40.60;97330.38;5050759;28;20308;-57
2023/10/10 13:42:49;;;;;;;9.20;4.73;;;;;;;30.99;42.07;97324.84;5054474;28;20207;-57
2023/10/10 13:45:22;;;;;;;7.37;3.50;;;;;;;30.52;41.80;97333.41;5000831;28;20840;-60
2023/10/10 13:47:50;;;;;;;5.80;3.90;;;;;;;30.48;40.53;97333.22;5054938;28;20601;-61
2023/10/10 13:50:31;;;;;;;8.67;3.47;;;;;;;30.51;41.93;97321.69;5046993;28;20215;-61
2023/10/10 13:52:59;;;;;;;5.60;3.23;;;;;;;30.85;41.26;97323.00;5056829;28;20322;-60
2023/10/10 13:55:30;;;;;;;4.10;3.33;;;;;;;30.66;41.31;97314.22;5054286;28;20300;-60
2023/10/10 13:57:57;;;;;;;5.47;3.80;;;;;;;30.54;40.75;97315.59;5054680;28;20287;-59